sensor_id;sensor_type;location;lat;lon;timestamp;P1;durP1;ratioP1;P2;durP2;ratioP2
10659;SDS011;5378;53.206;13.316;2022-12-05T00:02:06;74.57;;;22.30;;
10659;SDS011;5378;53.206;13.316;2022-12-05T00:04:53;80.70;;;22.53;;
10659;SDS011;5378;53.206;13.316;2022-12-05T00:07:40;78.87;;;21.90;;
10659;SDS011;5378;53.206;13.316;2022-12-05T00:10:27;74.23;;;21.30;;
10659;SDS011;5378;53.206;13.316;2022-12-05T00:13:15;73.37;;;18.77;;
10659;SDS011;5378;53.206;13.316;2022-12-05T00:16:05;109.30;;;23.30;;
10659;SDS011;5378;53.206;13.316;2022-12-05T00:18:53;91.03;;;22.30;;
10659;SDS011;5378;53.206;13.316;2022-12-05T00:21:41;91.27;;;23.97;;
10659;SDS011;5378;53.206;13.316;2022-12-05T00:24:28;80.83;;;21.13;;
10659;SDS011;5378;53.206;13.316;2022-12-05T00:27:15;76.03;;;22.03;;
10659;SDS011;5378;53.206;13.316;2022-12-05T00:30:04;94.73;;;23.40;;
10659;SDS011;5378;53.206;13.316;2022-12-05T00:32:52;83.50;;;20.50;;
10659;SDS011;5378;53.206;13.316;2022-12-05T00:35:39;88.83;;;21.23;;
10659;SDS011;5378;53.206;13.316;2022-12-05T00:38:27;86.33;;;20.20;;
10659;SDS011;5378;53.206;13.316;2022-12-05T00:41:14;63.10;;;21.23;;
10659;SDS011;5378;53.206;13.316;2022-12-05T00:44:03;70.00;;;20.30;;
10659;SDS011;5378;53.206;13.316;2022-12-05T00:46:52;94.97;;;21.07;;
10659;SDS011;5378;53.206;13.316;2022-12-05T00:49:39;86.03;;;22.40;;
10659;SDS011;5378;53.206;13.316;2022-12-05T00:52:26;89.63;;;22.57;;
10659;SDS011;5378;53.206;13.316;2022-12-05T00:55:14;81.70;;;22.10;;
10659;SDS011;5378;53.206;13.316;2022-12-05T00:58:01;67.97;;;20.03;;
10659;SDS011;5378;53.206;13.316;2022-12-05T01:00:48;83.93;;;22.43;;
10659;SDS011;5378;53.206;13.316;2022-12-05T01:03:37;80.33;;;21.07;;
10659;SDS011;5378;53.206;13.316;2022-12-05T01:06:25;78.40;;;19.00;;
10659;SDS011;5378;53.206;13.316;2022-12-05T01:09:14;83.77;;;19.30;;
10659;SDS011;5378;53.206;13.316;2022-12-05T01:12:03;61.60;;;17.10;;
10659;SDS011;5378;53.206;13.316;2022-12-05T01:14:50;94.10;;;22.50;;
10659;SDS011;5378;53.206;13.316;2022-12-05T01:17:37;76.50;;;21.03;;
10659;SDS011;5378;53.206;13.316;2022-12-05T01:20:26;78.87;;;23.43;;
10659;SDS011;5378;53.206;13.316;2022-12-05T01:23:13;77.20;;;19.73;;
10659;SDS011;5378;53.206;13.316;2022-12-05T01:26:00;69.13;;;19.30;;
10659;SDS011;5378;53.206;13.316;2022-12-05T01:28:51;72.10;;;19.83;;
10659;SDS011;5378;53.206;13.316;2022-12-05T01:31:38;78.60;;;19.20;;
10659;SDS011;5378;53.206;13.316;2022-12-05T01:34:26;111.40;;;21.90;;
10659;SDS011;5378;53.206;13.316;2022-12-05T01:37:14;71.23;;;20.70;;
10659;SDS011;5378;53.206;13.316;2022-12-05T01:40:02;65.07;;;20.60;;
10659;SDS011;5378;53.206;13.316;2022-12-05T01:42:49;102.47;;;22.00;;
10659;SDS011;5378;53.206;13.316;2022-12-05T01:45:37;81.77;;;20.77;;
10659;SDS011;5378;53.206;13.316;2022-12-05T01:48:27;89.20;;;21.00;;
10659;SDS011;5378;53.206;13.316;2022-12-05T01:51:20;88.93;;;19.47;;
10659;SDS011;5378;53.206;13.316;2022-12-05T01:54:09;74.67;;;21.57;;
10659;SDS011;5378;53.206;13.316;2022-12-05T01:56:58;83.83;;;20.70;;
10659;SDS011;5378;53.206;13.316;2022-12-05T01:59:49;95.47;;;22.23;;
10659;SDS011;5378;53.206;13.316;2022-12-05T02:02:39;94.13;;;20.13;;
10659;SDS011;5378;53.206;13.316;2022-12-05T02:05:30;78.13;;;21.07;;
10659;SDS011;5378;53.206;13.316;2022-12-05T02:08:18;74.53;;;20.80;;
10659;SDS011;5378;53.206;13.316;2022-12-05T02:11:07;78.07;;;19.50;;
10659;SDS011;5378;53.206;13.316;2022-12-05T02:14:01;64.67;;;19.67;;
10659;SDS011;5378;53.206;13.316;2022-12-05T02:17:01;76.90;;;19.43;;
10659;SDS011;5378;53.206;13.316;2022-12-05T02:20:03;66.33;;;18.97;;
10659;SDS011;5378;53.206;13.316;2022-12-05T02:23:11;90.07;;;21.20;;
10659;SDS011;5378;53.206;13.316;2022-12-05T02:26:38;75.17;;;20.20;;
10659;SDS011;5378;53.206;13.316;2022-12-05T02:32:56;61.57;;;18.73;;
10659;SDS011;5378;53.206;13.316;2022-12-05T02:35:53;68.17;;;20.70;;
10659;SDS011;5378;53.206;13.316;2022-12-05T02:38:49;81.53;;;18.97;;
10659;SDS011;5378;53.206;13.316;2022-12-05T02:41:44;67.63;;;19.90;;
10659;SDS011;5378;53.206;13.316;2022-12-05T02:44:36;85.40;;;19.63;;
10659;SDS011;5378;53.206;13.316;2022-12-05T02:47:29;92.33;;;22.13;;
10659;SDS011;5378;53.206;13.316;2022-12-05T02:50:19;81.80;;;22.03;;
10659;SDS011;5378;53.206;13.316;2022-12-05T02:53:11;79.57;;;20.40;;
10659;SDS011;5378;53.206;13.316;2022-12-05T02:56:00;75.73;;;20.87;;
10659;SDS011;5378;53.206;13.316;2022-12-05T02:58:50;66.07;;;18.57;;
10659;SDS011;5378;53.206;13.316;2022-12-05T03:01:42;67.93;;;21.57;;
10659;SDS011;5378;53.206;13.316;2022-12-05T03:04:31;71.43;;;21.20;;
10659;SDS011;5378;53.206;13.316;2022-12-05T03:07:19;73.07;;;20.00;;
10659;SDS011;5378;53.206;13.316;2022-12-05T03:10:08;64.13;;;17.20;;
10659;SDS011;5378;53.206;13.316;2022-12-05T03:13:01;63.77;;;17.73;;
10659;SDS011;5378;53.206;13.316;2022-12-05T03:15:54;79.87;;;21.40;;
10659;SDS011;5378;53.206;13.316;2022-12-05T03:18:45;54.63;;;18.60;;
10659;SDS011;5378;53.206;13.316;2022-12-05T03:21:36;82.23;;;20.30;;
10659;SDS011;5378;53.206;13.316;2022-12-05T03:24:28;74.47;;;17.90;;
10659;SDS011;5378;53.206;13.316;2022-12-05T03:27:19;80.70;;;19.87;;
10659;SDS011;5378;53.206;13.316;2022-12-05T03:30:10;70.43;;;20.33;;
10659;SDS011;5378;53.206;13.316;2022-12-05T03:33:01;67.20;;;18.43;;
10659;SDS011;5378;53.206;13.316;2022-12-05T03:35:53;68.23;;;18.17;;
10659;SDS011;5378;53.206;13.316;2022-12-05T03:38:50;100.50;;;20.40;;
10659;SDS011;5378;53.206;13.316;2022-12-05T03:41:43;71.93;;;20.17;;
10659;SDS011;5378;53.206;13.316;2022-12-05T03:44:36;71.60;;;22.33;;
10659;SDS011;5378;53.206;13.316;2022-12-05T03:47:31;67.97;;;18.50;;
10659;SDS011;5378;53.206;13.316;2022-12-05T03:50:26;74.73;;;21.30;;
10659;SDS011;5378;53.206;13.316;2022-12-05T03:53:16;61.20;;;17.33;;
10659;SDS011;5378;53.206;13.316;2022-12-05T03:56:09;68.13;;;19.03;;
10659;SDS011;5378;53.206;13.316;2022-12-05T03:59:01;74.63;;;19.30;;
10659;SDS011;5378;53.206;13.316;2022-12-05T04:01:54;68.93;;;18.80;;
10659;SDS011;5378;53.206;13.316;2022-12-05T04:04:44;69.10;;;18.30;;
10659;SDS011;5378;53.206;13.316;2022-12-05T04:07:34;66.40;;;19.23;;
10659;SDS011;5378;53.206;13.316;2022-12-05T04:10:25;82.10;;;18.60;;
10659;SDS011;5378;53.206;13.316;2022-12-05T04:13:16;62.60;;;20.67;;
10659;SDS011;5378;53.206;13.316;2022-12-05T04:16:09;73.00;;;21.27;;
10659;SDS011;5378;53.206;13.316;2022-12-05T04:19:16;73.20;;;18.47;;
10659;SDS011;5378;53.206;13.316;2022-12-05T04:22:08;54.53;;;19.40;;
10659;SDS011;5378;53.206;13.316;2022-12-05T04:24:55;74.43;;;21.10;;
10659;SDS011;5378;53.206;13.316;2022-12-05T04:28:06;60.93;;;17.07;;
10659;SDS011;5378;53.206;13.316;2022-12-05T04:31:08;55.00;;;18.83;;
10659;SDS011;5378;53.206;13.316;2022-12-05T04:33:59;72.47;;;18.90;;
10659;SDS011;5378;53.206;13.316;2022-12-05T04:36:50;80.20;;;20.60;;
10659;SDS011;5378;53.206;13.316;2022-12-05T04:39:43;66.67;;;18.87;;
10659;SDS011;5378;53.206;13.316;2022-12-05T04:42:34;77.70;;;19.27;;
10659;SDS011;5378;53.206;13.316;2022-12-05T04:45:23;70.80;;;20.93;;
10659;SDS011;5378;53.206;13.316;2022-12-05T04:48:13;61.90;;;18.63;;
10659;SDS011;5378;53.206;13.316;2022-12-05T04:51:03;69.97;;;21.97;;
10659;SDS011;5378;53.206;13.316;2022-12-05T04:53:54;56.47;;;18.77;;
10659;SDS011;5378;53.206;13.316;2022-12-05T04:56:46;68.37;;;18.60;;
10659;SDS011;5378;53.206;13.316;2022-12-05T04:59:37;100.37;;;18.47;;
10659;SDS011;5378;53.206;13.316;2022-12-05T05:02:26;69.30;;;20.63;;
10659;SDS011;5378;53.206;13.316;2022-12-05T05:05:19;77.17;;;19.13;;
10659;SDS011;5378;53.206;13.316;2022-12-05T05:08:14;64.33;;;17.97;;
10659;SDS011;5378;53.206;13.316;2022-12-05T05:11:03;78.60;;;19.70;;
10659;SDS011;5378;53.206;13.316;2022-12-05T05:13:57;47.67;;;18.40;;
10659;SDS011;5378;53.206;13.316;2022-12-05T05:16:44;71.10;;;19.13;;
10659;SDS011;5378;53.206;13.316;2022-12-05T05:19:32;60.27;;;16.73;;
10659;SDS011;5378;53.206;13.316;2022-12-05T05:22:21;61.40;;;17.10;;
10659;SDS011;5378;53.206;13.316;2022-12-05T05:25:08;61.90;;;16.30;;
10659;SDS011;5378;53.206;13.316;2022-12-05T05:27:55;77.57;;;19.17;;
10659;SDS011;5378;53.206;13.316;2022-12-05T05:30:42;61.47;;;15.50;;
10659;SDS011;5378;53.206;13.316;2022-12-05T05:33:29;49.87;;;17.07;;
10659;SDS011;5378;53.206;13.316;2022-12-05T05:36:17;41.77;;;16.17;;
10659;SDS011;5378;53.206;13.316;2022-12-05T05:39:09;54.47;;;17.23;;
10659;SDS011;5378;53.206;13.316;2022-12-05T05:41:57;56.70;;;16.47;;
10659;SDS011;5378;53.206;13.316;2022-12-05T05:44:44;68.67;;;17.70;;
10659;SDS011;5378;53.206;13.316;2022-12-05T05:47:32;49.70;;;16.17;;
10659;SDS011;5378;53.206;13.316;2022-12-05T05:50:19;79.47;;;18.20;;
10659;SDS011;5378;53.206;13.316;2022-12-05T05:53:06;45.43;;;17.20;;
10659;SDS011;5378;53.206;13.316;2022-12-05T05:55:54;57.87;;;18.10;;
10659;SDS011;5378;53.206;13.316;2022-12-05T05:58:42;58.73;;;18.13;;
10659;SDS011;5378;53.206;13.316;2022-12-05T06:01:29;81.40;;;18.50;;
10659;SDS011;5378;53.206;13.316;2022-12-05T06:04:16;74.70;;;19.57;;
10659;SDS011;5378;53.206;13.316;2022-12-05T06:07:04;53.77;;;15.47;;
10659;SDS011;5378;53.206;13.316;2022-12-05T06:09:51;64.80;;;16.93;;
10659;SDS011;5378;53.206;13.316;2022-12-05T06:12:39;60.00;;;18.53;;
10659;SDS011;5378;53.206;13.316;2022-12-05T06:15:26;79.43;;;18.93;;
10659;SDS011;5378;53.206;13.316;2022-12-05T06:18:13;79.67;;;19.17;;
10659;SDS011;5378;53.206;13.316;2022-12-05T06:21:00;65.53;;;15.87;;
10659;SDS011;5378;53.206;13.316;2022-12-05T06:23:48;74.87;;;19.00;;
10659;SDS011;5378;53.206;13.316;2022-12-05T06:26:36;75.70;;;22.90;;
10659;SDS011;5378;53.206;13.316;2022-12-05T06:29:24;65.67;;;19.40;;
10659;SDS011;5378;53.206;13.316;2022-12-05T06:32:13;60.47;;;19.33;;
10659;SDS011;5378;53.206;13.316;2022-12-05T06:35:00;62.07;;;17.00;;
10659;SDS011;5378;53.206;13.316;2022-12-05T06:37:52;62.43;;;18.03;;
10659;SDS011;5378;53.206;13.316;2022-12-05T06:40:40;56.33;;;17.70;;
10659;SDS011;5378;53.206;13.316;2022-12-05T06:43:28;59.27;;;15.20;;
10659;SDS011;5378;53.206;13.316;2022-12-05T06:46:16;55.77;;;16.67;;
10659;SDS011;5378;53.206;13.316;2022-12-05T06:49:03;58.83;;;16.07;;
10659;SDS011;5378;53.206;13.316;2022-12-05T06:51:51;56.70;;;15.77;;
10659;SDS011;5378;53.206;13.316;2022-12-05T06:54:38;62.73;;;16.20;;
10659;SDS011;5378;53.206;13.316;2022-12-05T06:57:26;55.13;;;16.57;;
10659;SDS011;5378;53.206;13.316;2022-12-05T07:00:13;50.70;;;15.50;;
10659;SDS011;5378;53.206;13.316;2022-12-05T07:03:20;60.07;;;18.00;;
10659;SDS011;5378;53.206;13.316;2022-12-05T07:06:07;63.67;;;15.03;;
10659;SDS011;5378;53.206;13.316;2022-12-05T07:08:54;48.47;;;15.27;;
10659;SDS011;5378;53.206;13.316;2022-12-05T07:11:41;64.57;;;13.73;;
10659;SDS011;5378;53.206;13.316;2022-12-05T07:14:31;41.30;;;11.47;;
10659;SDS011;5378;53.206;13.316;2022-12-05T07:17:34;49.10;;;13.77;;
10659;SDS011;5378;53.206;13.316;2022-12-05T07:20:24;47.27;;;13.00;;
10659;SDS011;5378;53.206;13.316;2022-12-05T07:23:18;46.90;;;11.70;;
10659;SDS011;5378;53.206;13.316;2022-12-05T07:26:05;35.13;;;12.60;;
10659;SDS011;5378;53.206;13.316;2022-12-05T07:28:54;39.47;;;12.40;;
10659;SDS011;5378;53.206;13.316;2022-12-05T07:31:42;39.17;;;11.23;;
10659;SDS011;5378;53.206;13.316;2022-12-05T07:34:29;38.67;;;14.17;;
10659;SDS011;5378;53.206;13.316;2022-12-05T07:37:18;35.63;;;12.30;;
10659;SDS011;5378;53.206;13.316;2022-12-05T07:40:05;28.73;;;11.60;;
10659;SDS011;5378;53.206;13.316;2022-12-05T07:42:53;28.77;;;10.40;;
10659;SDS011;5378;53.206;13.316;2022-12-05T07:45:40;35.57;;;12.23;;
10659;SDS011;5378;53.206;13.316;2022-12-05T07:48:27;34.03;;;11.30;;
10659;SDS011;5378;53.206;13.316;2022-12-05T07:51:14;40.73;;;13.60;;
10659;SDS011;5378;53.206;13.316;2022-12-05T07:54:03;38.17;;;10.60;;
10659;SDS011;5378;53.206;13.316;2022-12-05T07:56:51;25.70;;;10.03;;
10659;SDS011;5378;53.206;13.316;2022-12-05T07:59:38;21.77;;;8.67;;
10659;SDS011;5378;53.206;13.316;2022-12-05T08:02:25;22.90;;;9.40;;
10659;SDS011;5378;53.206;13.316;2022-12-05T08:05:12;33.50;;;9.30;;
10659;SDS011;5378;53.206;13.316;2022-12-05T08:07:59;26.37;;;9.90;;
10659;SDS011;5378;53.206;13.316;2022-12-05T08:10:48;24.43;;;8.17;;
10659;SDS011;5378;53.206;13.316;2022-12-05T08:13:35;22.43;;;8.80;;
10659;SDS011;5378;53.206;13.316;2022-12-05T08:16:24;32.60;;;9.30;;
10659;SDS011;5378;53.206;13.316;2022-12-05T08:19:12;26.60;;;9.90;;
10659;SDS011;5378;53.206;13.316;2022-12-05T08:22:01;32.10;;;9.53;;
10659;SDS011;5378;53.206;13.316;2022-12-05T08:24:48;19.90;;;8.00;;
10659;SDS011;5378;53.206;13.316;2022-12-05T08:27:40;21.53;;;8.80;;
10659;SDS011;5378;53.206;13.316;2022-12-05T08:30:27;21.90;;;9.17;;
10659;SDS011;5378;53.206;13.316;2022-12-05T08:33:15;20.07;;;8.23;;
10659;SDS011;5378;53.206;13.316;2022-12-05T08:36:02;22.33;;;7.93;;
10659;SDS011;5378;53.206;13.316;2022-12-05T08:38:54;23.40;;;8.67;;
10659;SDS011;5378;53.206;13.316;2022-12-05T08:41:41;17.37;;;7.77;;
10659;SDS011;5378;53.206;13.316;2022-12-05T08:44:30;12.27;;;6.10;;
10659;SDS011;5378;53.206;13.316;2022-12-05T08:47:17;21.13;;;7.60;;
10659;SDS011;5378;53.206;13.316;2022-12-05T08:50:05;19.00;;;6.40;;
10659;SDS011;5378;53.206;13.316;2022-12-05T08:52:53;16.70;;;7.30;;
10659;SDS011;5378;53.206;13.316;2022-12-05T08:55:40;19.07;;;6.40;;
10659;SDS011;5378;53.206;13.316;2022-12-05T08:58:27;16.73;;;5.83;;
10659;SDS011;5378;53.206;13.316;2022-12-05T09:01:17;16.57;;;6.90;;
10659;SDS011;5378;53.206;13.316;2022-12-05T09:04:05;15.83;;;5.67;;
10659;SDS011;5378;53.206;13.316;2022-12-05T09:06:53;20.83;;;7.00;;
10659;SDS011;5378;53.206;13.316;2022-12-05T09:09:40;17.53;;;6.77;;
10659;SDS011;5378;53.206;13.316;2022-12-05T09:12:27;20.03;;;6.93;;
10659;SDS011;5378;53.206;13.316;2022-12-05T09:15:14;14.43;;;6.47;;
10659;SDS011;5378;53.206;13.316;2022-12-05T09:18:04;13.50;;;6.30;;
10659;SDS011;5378;53.206;13.316;2022-12-05T09:20:51;16.77;;;6.70;;
10659;SDS011;5378;53.206;13.316;2022-12-05T09:23:38;13.87;;;7.10;;
10659;SDS011;5378;53.206;13.316;2022-12-05T09:26:27;21.83;;;6.83;;
10659;SDS011;5378;53.206;13.316;2022-12-05T09:29:15;17.27;;;7.83;;
10659;SDS011;5378;53.206;13.316;2022-12-05T09:32:03;13.20;;;5.97;;
10659;SDS011;5378;53.206;13.316;2022-12-05T09:34:51;16.03;;;6.43;;
10659;SDS011;5378;53.206;13.316;2022-12-05T09:37:39;16.40;;;6.50;;
10659;SDS011;5378;53.206;13.316;2022-12-05T09:40:26;15.60;;;7.30;;
10659;SDS011;5378;53.206;13.316;2022-12-05T09:43:15;20.97;;;6.47;;
10659;SDS011;5378;53.206;13.316;2022-12-05T09:46:13;12.60;;;5.37;;
10659;SDS011;5378;53.206;13.316;2022-12-05T09:49:06;17.47;;;7.60;;
10659;SDS011;5378;53.206;13.316;2022-12-05T09:51:59;17.07;;;7.20;;
10659;SDS011;5378;53.206;13.316;2022-12-05T09:54:49;21.63;;;6.57;;
10659;SDS011;5378;53.206;13.316;2022-12-05T09:57:37;13.17;;;6.43;;
10659;SDS011;5378;53.206;13.316;2022-12-05T10:00:28;18.07;;;6.30;;
10659;SDS011;5378;53.206;13.316;2022-12-05T10:03:20;14.40;;;6.20;;
10659;SDS011;5378;53.206;13.316;2022-12-05T10:06:13;19.17;;;7.07;;
10659;SDS011;5378;53.206;13.316;2022-12-05T10:09:09;12.90;;;5.97;;
10659;SDS011;5378;53.206;13.316;2022-12-05T10:12:09;15.90;;;6.97;;
10659;SDS011;5378;53.206;13.316;2022-12-05T10:15:03;18.40;;;6.60;;
10659;SDS011;5378;53.206;13.316;2022-12-05T10:17:58;15.10;;;6.60;;
10659;SDS011;5378;53.206;13.316;2022-12-05T10:20:49;13.53;;;6.33;;
10659;SDS011;5378;53.206;13.316;2022-12-05T10:23:41;13.53;;;6.40;;
10659;SDS011;5378;53.206;13.316;2022-12-05T10:26:45;27.60;;;8.10;;
10659;SDS011;5378;53.206;13.316;2022-12-05T10:29:38;13.63;;;6.70;;
10659;SDS011;5378;53.206;13.316;2022-12-05T10:32:31;16.50;;;6.70;;
10659;SDS011;5378;53.206;13.316;2022-12-05T10:35:23;20.60;;;7.27;;
10659;SDS011;5378;53.206;13.316;2022-12-05T10:38:13;20.33;;;7.40;;
10659;SDS011;5378;53.206;13.316;2022-12-05T10:41:08;14.33;;;6.60;;
10659;SDS011;5378;53.206;13.316;2022-12-05T10:43:59;17.60;;;6.90;;
10659;SDS011;5378;53.206;13.316;2022-12-05T10:46:46;14.50;;;6.50;;
10659;SDS011;5378;53.206;13.316;2022-12-05T10:49:34;16.57;;;6.43;;
10659;SDS011;5378;53.206;13.316;2022-12-05T10:52:22;23.40;;;6.90;;
10659;SDS011;5378;53.206;13.316;2022-12-05T10:55:12;22.73;;;7.30;;
10659;SDS011;5378;53.206;13.316;2022-12-05T10:58:09;23.70;;;9.03;;
10659;SDS011;5378;53.206;13.316;2022-12-05T11:01:07;19.17;;;7.67;;
10659;SDS011;5378;53.206;13.316;2022-12-05T11:03:55;15.53;;;6.90;;
10659;SDS011;5378;53.206;13.316;2022-12-05T11:06:48;21.40;;;8.33;;
10659;SDS011;5378;53.206;13.316;2022-12-05T11:09:41;12.50;;;5.63;;
10659;SDS011;5378;53.206;13.316;2022-12-05T11:12:35;14.60;;;6.80;;
10659;SDS011;5378;53.206;13.316;2022-12-05T11:15:24;17.77;;;6.90;;
10659;SDS011;5378;53.206;13.316;2022-12-05T11:18:24;14.33;;;7.63;;
10659;SDS011;5378;53.206;13.316;2022-12-05T11:21:13;18.70;;;6.97;;
10659;SDS011;5378;53.206;13.316;2022-12-05T11:24:12;19.00;;;7.00;;
10659;SDS011;5378;53.206;13.316;2022-12-05T11:27:19;12.50;;;6.07;;
10659;SDS011;5378;53.206;13.316;2022-12-05T11:30:14;15.13;;;7.40;;
10659;SDS011;5378;53.206;13.316;2022-12-05T11:33:15;14.30;;;7.10;;
10659;SDS011;5378;53.206;13.316;2022-12-05T11:36:09;15.40;;;6.60;;
10659;SDS011;5378;53.206;13.316;2022-12-05T11:38:58;19.50;;;8.30;;
10659;SDS011;5378;53.206;13.316;2022-12-05T11:41:49;20.27;;;7.17;;
10659;SDS011;5378;53.206;13.316;2022-12-05T11:48:20;16.73;;;6.97;;
10659;SDS011;5378;53.206;13.316;2022-12-05T11:51:24;22.07;;;8.13;;
10659;SDS011;5378;53.206;13.316;2022-12-05T11:54:29;20.60;;;7.90;;
10659;SDS011;5378;53.206;13.316;2022-12-05T11:57:56;22.47;;;8.20;;
10659;SDS011;5378;53.206;13.316;2022-12-05T12:01:06;15.57;;;6.70;;
10659;SDS011;5378;53.206;13.316;2022-12-05T12:04:07;16.67;;;7.70;;
10659;SDS011;5378;53.206;13.316;2022-12-05T12:07:26;16.57;;;7.90;;
10659;SDS011;5378;53.206;13.316;2022-12-05T12:10:22;13.90;;;6.60;;
10659;SDS011;5378;53.206;13.316;2022-12-05T12:13:19;16.67;;;6.53;;
10659;SDS011;5378;53.206;13.316;2022-12-05T12:16:16;20.40;;;8.60;;
10659;SDS011;5378;53.206;13.316;2022-12-05T12:19:18;17.13;;;7.43;;
10659;SDS011;5378;53.206;13.316;2022-12-05T12:22:18;19.03;;;8.47;;
10659;SDS011;5378;53.206;13.316;2022-12-05T12:25:20;20.30;;;8.63;;
10659;SDS011;5378;53.206;13.316;2022-12-05T12:28:17;15.50;;;6.50;;
10659;SDS011;5378;53.206;13.316;2022-12-05T12:34:32;19.80;;;7.63;;
10659;SDS011;5378;53.206;13.316;2022-12-05T12:37:35;18.10;;;8.57;;
10659;SDS011;5378;53.206;13.316;2022-12-05T12:40:33;20.23;;;8.00;;
10659;SDS011;5378;53.206;13.316;2022-12-05T12:43:34;19.43;;;7.27;;
10659;SDS011;5378;53.206;13.316;2022-12-05T12:46:40;15.30;;;6.97;;
10659;SDS011;5378;53.206;13.316;2022-12-05T12:49:37;16.20;;;6.13;;
10659;SDS011;5378;53.206;13.316;2022-12-05T12:52:38;17.63;;;7.60;;
10659;SDS011;5378;53.206;13.316;2022-12-05T12:55:40;17.37;;;8.00;;
10659;SDS011;5378;53.206;13.316;2022-12-05T12:58:38;15.30;;;7.90;;
10659;SDS011;5378;53.206;13.316;2022-12-05T13:01:35;15.57;;;7.37;;
10659;SDS011;5378;53.206;13.316;2022-12-05T13:04:28;21.97;;;8.17;;
10659;SDS011;5378;53.206;13.316;2022-12-05T13:07:19;20.17;;;7.00;;
10659;SDS011;5378;53.206;13.316;2022-12-05T13:10:13;17.53;;;5.80;;
10659;SDS011;5378;53.206;13.316;2022-12-05T13:13:09;21.40;;;6.37;;
10659;SDS011;5378;53.206;13.316;2022-12-05T13:16:01;18.53;;;6.50;;
10659;SDS011;5378;53.206;13.316;2022-12-05T13:18:52;13.40;;;6.00;;
10659;SDS011;5378;53.206;13.316;2022-12-05T13:21:40;19.00;;;7.30;;
10659;SDS011;5378;53.206;13.316;2022-12-05T13:24:28;11.90;;;5.30;;
10659;SDS011;5378;53.206;13.316;2022-12-05T13:27:17;21.53;;;7.73;;
10659;SDS011;5378;53.206;13.316;2022-12-05T13:30:06;18.97;;;7.27;;
10659;SDS011;5378;53.206;13.316;2022-12-05T13:33:04;12.73;;;6.20;;
10659;SDS011;5378;53.206;13.316;2022-12-05T13:35:54;12.33;;;6.70;;
10659;SDS011;5378;53.206;13.316;2022-12-05T13:39:02;24.63;;;7.40;;
10659;SDS011;5378;53.206;13.316;2022-12-05T13:42:19;15.47;;;5.93;;
10659;SDS011;5378;53.206;13.316;2022-12-05T13:45:10;13.03;;;6.37;;
10659;SDS011;5378;53.206;13.316;2022-12-05T13:48:11;16.03;;;6.70;;
10659;SDS011;5378;53.206;13.316;2022-12-05T13:51:05;15.67;;;6.97;;
10659;SDS011;5378;53.206;13.316;2022-12-05T13:53:57;16.80;;;6.90;;
10659;SDS011;5378;53.206;13.316;2022-12-05T13:56:48;11.53;;;5.40;;
10659;SDS011;5378;53.206;13.316;2022-12-05T13:59:59;12.90;;;5.70;;
10659;SDS011;5378;53.206;13.316;2022-12-05T14:02:59;17.40;;;6.20;;
10659;SDS011;5378;53.206;13.316;2022-12-05T14:05:49;13.03;;;5.77;;
10659;SDS011;5378;53.206;13.316;2022-12-05T14:11:41;14.77;;;5.63;;
10659;SDS011;5378;53.206;13.316;2022-12-05T14:15:22;10.90;;;5.33;;
10659;SDS011;5378;53.206;13.316;2022-12-05T14:18:12;14.03;;;5.73;;
10659;SDS011;5378;53.206;13.316;2022-12-05T14:21:03;10.93;;;5.77;;
10659;SDS011;5378;53.206;13.316;2022-12-05T14:23:56;12.00;;;5.23;;
10659;SDS011;5378;53.206;13.316;2022-12-05T14:26:52;10.03;;;5.37;;
10659;SDS011;5378;53.206;13.316;2022-12-05T14:29:54;11.67;;;5.87;;
10659;SDS011;5378;53.206;13.316;2022-12-05T14:32:49;14.50;;;5.97;;
10659;SDS011;5378;53.206;13.316;2022-12-05T14:35:40;15.53;;;5.90;;
10659;SDS011;5378;53.206;13.316;2022-12-05T14:38:31;17.13;;;6.13;;
10659;SDS011;5378;53.206;13.316;2022-12-05T14:41:21;12.47;;;5.20;;
10659;SDS011;5378;53.206;13.316;2022-12-05T14:44:18;11.93;;;5.67;;
10659;SDS011;5378;53.206;13.316;2022-12-05T14:47:06;12.43;;;5.33;;
10659;SDS011;5378;53.206;13.316;2022-12-05T14:53:28;8.50;;;4.77;;
10659;SDS011;5378;53.206;13.316;2022-12-05T14:56:20;13.60;;;4.53;;
10659;SDS011;5378;53.206;13.316;2022-12-05T14:59:14;13.70;;;5.43;;
10659;SDS011;5378;53.206;13.316;2022-12-05T15:02:13;9.90;;;4.70;;
10659;SDS011;5378;53.206;13.316;2022-12-05T15:05:08;14.77;;;6.83;;
10659;SDS011;5378;53.206;13.316;2022-12-05T15:08:09;15.67;;;5.17;;
10659;SDS011;5378;53.206;13.316;2022-12-05T15:11:00;11.27;;;5.37;;
10659;SDS011;5378;53.206;13.316;2022-12-05T15:13:47;11.37;;;5.27;;
10659;SDS011;5378;53.206;13.316;2022-12-05T15:16:36;11.90;;;4.87;;
10659;SDS011;5378;53.206;13.316;2022-12-05T15:19:28;9.50;;;5.00;;
10659;SDS011;5378;53.206;13.316;2022-12-05T15:22:19;10.47;;;5.07;;
10659;SDS011;5378;53.206;13.316;2022-12-05T15:28:23;15.43;;;6.20;;
10659;SDS011;5378;53.206;13.316;2022-12-05T15:31:10;13.80;;;5.40;;
10659;SDS011;5378;53.206;13.316;2022-12-05T15:34:00;15.20;;;6.07;;
10659;SDS011;5378;53.206;13.316;2022-12-05T15:36:54;15.63;;;5.13;;
10659;SDS011;5378;53.206;13.316;2022-12-05T15:39:50;15.83;;;5.43;;
10659;SDS011;5378;53.206;13.316;2022-12-05T15:42:41;10.30;;;5.43;;
10659;SDS011;5378;53.206;13.316;2022-12-05T15:45:30;12.97;;;5.30;;
10659;SDS011;5378;53.206;13.316;2022-12-05T15:48:17;13.93;;;6.50;;
10659;SDS011;5378;53.206;13.316;2022-12-05T15:51:07;12.73;;;6.27;;
10659;SDS011;5378;53.206;13.316;2022-12-05T15:53:55;9.07;;;5.30;;
10659;SDS011;5378;53.206;13.316;2022-12-05T15:56:47;13.70;;;5.90;;
10659;SDS011;5378;53.206;13.316;2022-12-05T15:59:40;9.80;;;4.47;;
10659;SDS011;5378;53.206;13.316;2022-12-05T16:02:33;14.53;;;6.07;;
10659;SDS011;5378;53.206;13.316;2022-12-05T16:05:26;11.10;;;5.07;;
10659;SDS011;5378;53.206;13.316;2022-12-05T16:08:16;14.97;;;5.07;;
10659;SDS011;5378;53.206;13.316;2022-12-05T16:11:05;10.40;;;4.60;;
10659;SDS011;5378;53.206;13.316;2022-12-05T16:13:54;10.10;;;4.20;;
10659;SDS011;5378;53.206;13.316;2022-12-05T16:16:44;15.60;;;6.20;;
10659;SDS011;5378;53.206;13.316;2022-12-05T16:19:32;14.00;;;5.40;;
10659;SDS011;5378;53.206;13.316;2022-12-05T16:22:21;8.40;;;4.27;;
10659;SDS011;5378;53.206;13.316;2022-12-05T16:25:14;11.83;;;5.80;;
10659;SDS011;5378;53.206;13.316;2022-12-05T16:28:12;12.10;;;5.70;;
10659;SDS011;5378;53.206;13.316;2022-12-05T16:31:02;15.17;;;6.60;;
10659;SDS011;5378;53.206;13.316;2022-12-05T16:33:59;13.23;;;5.37;;
10659;SDS011;5378;53.206;13.316;2022-12-05T16:36:48;11.20;;;5.17;;
10659;SDS011;5378;53.206;13.316;2022-12-05T16:39:37;12.23;;;5.30;;
10659;SDS011;5378;53.206;13.316;2022-12-05T16:42:30;11.90;;;5.60;;
10659;SDS011;5378;53.206;13.316;2022-12-05T16:45:35;10.00;;;4.57;;
10659;SDS011;5378;53.206;13.316;2022-12-05T16:48:25;12.50;;;5.73;;
10659;SDS011;5378;53.206;13.316;2022-12-05T16:51:16;11.07;;;5.50;;
10659;SDS011;5378;53.206;13.316;2022-12-05T16:54:06;18.33;;;5.47;;
10659;SDS011;5378;53.206;13.316;2022-12-05T16:56:54;8.40;;;4.83;;
10659;SDS011;5378;53.206;13.316;2022-12-05T16:59:42;12.47;;;5.50;;
10659;SDS011;5378;53.206;13.316;2022-12-05T17:02:32;14.60;;;5.20;;
10659;SDS011;5378;53.206;13.316;2022-12-05T17:05:19;16.00;;;5.67;;
10659;SDS011;5378;53.206;13.316;2022-12-05T17:08:08;13.00;;;6.43;;
10659;SDS011;5378;53.206;13.316;2022-12-05T17:10:55;11.13;;;5.00;;
10659;SDS011;5378;53.206;13.316;2022-12-05T17:13:43;14.30;;;6.30;;